sensor_id;sensor_type;location;lat;lon;timestamp;pressure;altitude;pressure_sealevel;temperature
71564;BMP180;59391;52.504;13.438;2022-08-14T00:00:49;101160.00;;;28.40
71564;BMP180;59391;52.504;13.438;2022-08-14T00:03:27;101145.00;;;28.40
71564;BMP180;59391;52.504;13.438;2022-08-14T00:05:55;101160.00;;;28.40
71564;BMP180;59391;52.504;13.438;2022-08-14T00:08:22;101159.00;;;28.40
71564;BMP180;59391;52.504;13.438;2022-08-14T00:10:48;101171.00;;;28.30
71564;BMP180;59391;52.504;13.438;2022-08-14T00:13:17;101183.00;;;28.30
71564;BMP180;59391;52.504;13.438;2022-08-14T00:15:45;101164.00;;;28.20
71564;BMP180;59391;52.504;13.438;2022-08-14T00:18:19;101164.00;;;28.20
71564;BMP180;59391;52.504;13.438;2022-08-14T00:20:45;101154.00;;;28.10
71564;BMP180;59391;52.504;13.438;2022-08-14T00:23:13;101157.00;;;28.10
71564;BMP180;59391;52.504;13.438;2022-08-14T00:25:40;101164.00;;;28.10
71564;BMP180;59391;52.504;13.438;2022-08-14T00:28:10;101152.00;;;28.10
71564;BMP180;59391;52.504;13.438;2022-08-14T00:30:37;101163.00;;;28.00
71564;BMP180;59391;52.504;13.438;2022-08-14T00:33:06;101156.00;;;28.00
71564;BMP180;59391;52.504;13.438;2022-08-14T00:35:33;101156.00;;;27.90
71564;BMP180;59391;52.504;13.438;2022-08-14T00:37:58;101163.00;;;27.90
71564;BMP180;59391;52.504;13.438;2022-08-14T00:40:24;101151.00;;;27.90
71564;BMP180;59391;52.504;13.438;2022-08-14T00:42:50;101164.00;;;27.80
71564;BMP180;59391;52.504;13.438;2022-08-14T00:45:17;101152.00;;;27.80
71564;BMP180;59391;52.504;13.438;2022-08-14T00:47:45;101150.00;;;27.70
71564;BMP180;59391;52.504;13.438;2022-08-14T00:50:17;101141.00;;;27.70
71564;BMP180;59391;52.504;13.438;2022-08-14T00:52:46;101149.00;;;27.70
71564;BMP180;59391;52.504;13.438;2022-08-14T00:55:12;101175.00;;;27.50
71564;BMP180;59391;52.504;13.438;2022-08-14T00:57:39;101139.00;;;27.60
71564;BMP180;59391;52.504;13.438;2022-08-14T01:00:13;101136.00;;;27.60
71564;BMP180;59391;52.504;13.438;2022-08-14T01:02:43;101137.00;;;27.50
71564;BMP180;59391;52.504;13.438;2022-08-14T01:05:11;101139.00;;;27.50
71564;BMP180;59391;52.504;13.438;2022-08-14T01:07:51;101123.00;;;27.50
71564;BMP180;59391;52.504;13.438;2022-08-14T01:10:19;101128.00;;;27.50
71564;BMP180;59391;52.504;13.438;2022-08-14T01:12:46;101131.00;;;27.40
71564;BMP180;59391;52.504;13.438;2022-08-14T01:15:14;101132.00;;;27.40
71564;BMP180;59391;52.504;13.438;2022-08-14T01:17:42;101136.00;;;27.40
71564;BMP180;59391;52.504;13.438;2022-08-14T01:20:26;101126.00;;;27.40
71564;BMP180;59391;52.504;13.438;2022-08-14T01:23:13;101131.00;;;27.30
71564;BMP180;59391;52.504;13.438;2022-08-14T01:25:40;101125.00;;;27.30
71564;BMP180;59391;52.504;13.438;2022-08-14T01:28:06;101116.00;;;27.30
71564;BMP180;59391;52.504;13.438;2022-08-14T01:30:35;101123.00;;;27.30
71564;BMP180;59391;52.504;13.438;2022-08-14T01:33:03;101119.00;;;27.30
71564;BMP180;59391;52.504;13.438;2022-08-14T01:35:30;101123.00;;;27.30
71564;BMP180;59391;52.504;13.438;2022-08-14T01:37:56;101122.00;;;27.30
71564;BMP180;59391;52.504;13.438;2022-08-14T01:40:24;101125.00;;;27.30
71564;BMP180;59391;52.504;13.438;2022-08-14T01:42:53;101127.00;;;27.30
71564;BMP180;59391;52.504;13.438;2022-08-14T01:45:20;101127.00;;;27.30
71564;BMP180;59391;52.504;13.438;2022-08-14T01:47:46;101122.00;;;27.30
71564;BMP180;59391;52.504;13.438;2022-08-14T01:50:11;101133.00;;;27.30
71564;BMP180;59391;52.504;13.438;2022-08-14T01:52:37;101128.00;;;27.30
71564;BMP180;59391;52.504;13.438;2022-08-14T01:55:06;101136.00;;;27.30
71564;BMP180;59391;52.504;13.438;2022-08-14T01:57:34;101132.00;;;27.30
71564;BMP180;59391;52.504;13.438;2022-08-14T02:00:07;101131.00;;;27.30
71564;BMP180;59391;52.504;13.438;2022-08-14T02:02:37;101127.00;;;27.30
71564;BMP180;59391;52.504;13.438;2022-08-14T02:05:04;101135.00;;;27.30
71564;BMP180;59391;52.504;13.438;2022-08-14T02:07:29;101115.00;;;27.30
71564;BMP180;59391;52.504;13.438;2022-08-14T02:09:57;101126.00;;;27.30
71564;BMP180;59391;52.504;13.438;2022-08-14T02:12:24;101111.00;;;27.30
71564;BMP180;59391;52.504;13.438;2022-08-14T02:14:49;101123.00;;;27.30
71564;BMP180;59391;52.504;13.438;2022-08-14T02:17:15;101122.00;;;27.30
71564;BMP180;59391;52.504;13.438;2022-08-14T02:19:41;101114.00;;;27.30
71564;BMP180;59391;52.504;13.438;2022-08-14T02:22:07;101112.00;;;27.30
71564;BMP180;59391;52.504;13.438;2022-08-14T02:24:32;101107.00;;;27.30
71564;BMP180;59391;52.504;13.438;2022-08-14T02:26:59;101113.00;;;27.30
71564;BMP180;59391;52.504;13.438;2022-08-14T02:29:28;101094.00;;;27.30
71564;BMP180;59391;52.504;13.438;2022-08-14T02:31:58;101114.00;;;27.20
71564;BMP180;59391;52.504;13.438;2022-08-14T02:34:31;101093.00;;;27.20
71564;BMP180;59391;52.504;13.438;2022-08-14T02:37:01;101103.00;;;27.20
71564;BMP180;59391;52.504;13.438;2022-08-14T02:39:28;101100.00;;;27.30
71564;BMP180;59391;52.504;13.438;2022-08-14T02:41:55;101095.00;;;27.30
71564;BMP180;59391;52.504;13.438;2022-08-14T02:44:21;101099.00;;;27.30
71564;BMP180;59391;52.504;13.438;2022-08-14T02:46:50;101087.00;;;27.30
71564;BMP180;59391;52.504;13.438;2022-08-14T02:49:17;101088.00;;;27.30
71564;BMP180;59391;52.504;13.438;2022-08-14T02:51:54;101095.00;;;27.30
71564;BMP180;59391;52.504;13.438;2022-08-14T02:54:21;101093.00;;;27.30
71564;BMP180;59391;52.504;13.438;2022-08-14T02:56:52;101082.00;;;27.20
71564;BMP180;59391;52.504;13.438;2022-08-14T02:59:20;101084.00;;;27.20
71564;BMP180;59391;52.504;13.438;2022-08-14T03:01:47;101084.00;;;27.20
71564;BMP180;59391;52.504;13.438;2022-08-14T03:04:13;101075.00;;;27.20
71564;BMP180;59391;52.504;13.438;2022-08-14T03:06:40;101070.00;;;27.20
71564;BMP180;59391;52.504;13.438;2022-08-14T03:09:09;101062.00;;;27.20
71564;BMP180;59391;52.504;13.438;2022-08-14T03:11:37;101065.00;;;27.20
71564;BMP180;59391;52.504;13.438;2022-08-14T03:14:03;101075.00;;;27.20
71564;BMP180;59391;52.504;13.438;2022-08-14T03:16:29;101072.00;;;27.10
71564;BMP180;59391;52.504;13.438;2022-08-14T03:19:01;101082.00;;;27.10
71564;BMP180;59391;52.504;13.438;2022-08-14T03:21:28;101083.00;;;27.10
71564;BMP180;59391;52.504;13.438;2022-08-14T03:23:58;101077.00;;;27.10
71564;BMP180;59391;52.504;13.438;2022-08-14T03:26:35;101068.00;;;27.10
71564;BMP180;59391;52.504;13.438;2022-08-14T03:29:02;101081.00;;;27.10
71564;BMP180;59391;52.504;13.438;2022-08-14T03:31:28;101075.00;;;27.10
71564;BMP180;59391;52.504;13.438;2022-08-14T03:33:54;101078.00;;;27.10
71564;BMP180;59391;52.504;13.438;2022-08-14T03:36:21;101068.00;;;27.10
71564;BMP180;59391;52.504;13.438;2022-08-14T03:38:49;101074.00;;;27.10
71564;BMP180;59391;52.504;13.438;2022-08-14T03:41:25;101073.00;;;27.10
71564;BMP180;59391;52.504;13.438;2022-08-14T03:43:58;101078.00;;;27.10
71564;BMP180;59391;52.504;13.438;2022-08-14T03:46:30;101074.00;;;27.10
71564;BMP180;59391;52.504;13.438;2022-08-14T03:48:56;101068.00;;;27.00
71564;BMP180;59391;52.504;13.438;2022-08-14T03:51:23;101079.00;;;27.00
71564;BMP180;59391;52.504;13.438;2022-08-14T03:53:55;101081.00;;;27.00
71564;BMP180;59391;52.504;13.438;2022-08-14T03:56:26;101077.00;;;27.00
71564;BMP180;59391;52.504;13.438;2022-08-14T03:58:59;101076.00;;;27.00
71564;BMP180;59391;52.504;13.438;2022-08-14T04:01:30;101076.00;;;27.00
71564;BMP180;59391;52.504;13.438;2022-08-14T04:03:56;101071.00;;;27.00
71564;BMP180;59391;52.504;13.438;2022-08-14T04:06:34;101065.00;;;27.00
71564;BMP180;59391;52.504;13.438;2022-08-14T04:09:03;101052.00;;;27.00
71564;BMP180;59391;52.504;13.438;2022-08-14T04:11:29;101041.00;;;27.00
71564;BMP180;59391;52.504;13.438;2022-08-14T04:13:55;101049.00;;;27.00
71564;BMP180;59391;52.504;13.438;2022-08-14T04:16:21;101047.00;;;27.00
71564;BMP180;59391;52.504;13.438;2022-08-14T04:18:55;101047.00;;;27.00
71564;BMP180;59391;52.504;13.438;2022-08-14T04:21:23;101045.00;;;27.00
71564;BMP180;59391;52.504;13.438;2022-08-14T04:23:52;101038.00;;;27.00
71564;BMP180;59391;52.504;13.438;2022-08-14T04:26:19;101052.00;;;27.00
71564;BMP180;59391;52.504;13.438;2022-08-14T04:28:48;101054.00;;;27.00
71564;BMP180;59391;52.504;13.438;2022-08-14T04:31:20;101054.00;;;27.00
71564;BMP180;59391;52.504;13.438;2022-08-14T04:33:46;101043.00;;;27.00
71564;BMP180;59391;52.504;13.438;2022-08-14T04:36:13;101050.00;;;27.00
71564;BMP180;59391;52.504;13.438;2022-08-14T04:38:38;101044.00;;;27.00
71564;BMP180;59391;52.504;13.438;2022-08-14T04:41:22;101043.00;;;27.10
71564;BMP180;59391;52.504;13.438;2022-08-14T04:44:07;101051.00;;;27.10
71564;BMP180;59391;52.504;13.438;2022-08-14T04:46:34;101050.00;;;27.10
71564;BMP180;59391;52.504;13.438;2022-08-14T04:49:03;101027.00;;;27.10
71564;BMP180;59391;52.504;13.438;2022-08-14T04:51:30;101050.00;;;27.10
71564;BMP180;59391;52.504;13.438;2022-08-14T04:53:57;101035.00;;;27.10
71564;BMP180;59391;52.504;13.438;2022-08-14T04:56:26;101047.00;;;27.20
71564;BMP180;59391;52.504;13.438;2022-08-14T04:58:57;101047.00;;;27.20
71564;BMP180;59391;52.504;13.438;2022-08-14T05:01:25;101050.00;;;27.20
71564;BMP180;59391;52.504;13.438;2022-08-14T05:03:52;101037.00;;;27.30
71564;BMP180;59391;52.504;13.438;2022-08-14T05:06:19;101049.00;;;27.30
71564;BMP180;59391;52.504;13.438;2022-08-14T05:08:44;101047.00;;;27.40
71564;BMP180;59391;52.504;13.438;2022-08-14T05:11:10;101040.00;;;27.40
71564;BMP180;59391;52.504;13.438;2022-08-14T05:13:37;101020.00;;;27.40
71564;BMP180;59391;52.504;13.438;2022-08-14T05:16:05;101025.00;;;27.50
71564;BMP180;59391;52.504;13.438;2022-08-14T05:18:36;101043.00;;;27.50
71564;BMP180;59391;52.504;13.438;2022-08-14T05:21:07;101026.00;;;27.50
71564;BMP180;59391;52.504;13.438;2022-08-14T05:23:37;101036.00;;;27.50
71564;BMP180;59391;52.504;13.438;2022-08-14T05:26:05;101030.00;;;27.60
71564;BMP180;59391;52.504;13.438;2022-08-14T05:28:40;101030.00;;;27.60
71564;BMP180;59391;52.504;13.438;2022-08-14T05:31:13;101029.00;;;27.60
71564;BMP180;59391;52.504;13.438;2022-08-14T05:33:43;101025.00;;;27.70
71564;BMP180;59391;52.504;13.438;2022-08-14T05:36:10;101025.00;;;27.70
71564;BMP180;59391;52.504;13.438;2022-08-14T05:38:41;101013.00;;;27.80
71564;BMP180;59391;52.504;13.438;2022-08-14T05:41:13;101004.00;;;27.80
71564;BMP180;59391;52.504;13.438;2022-08-14T05:43:44;101000.00;;;27.80
71564;BMP180;59391;52.504;13.438;2022-08-14T05:46:14;101005.00;;;27.80
71564;BMP180;59391;52.504;13.438;2022-08-14T05:48:47;100999.00;;;27.90
71564;BMP180;59391;52.504;13.438;2022-08-14T05:51:14;101011.00;;;27.90
71564;BMP180;59391;52.504;13.438;2022-08-14T05:56:54;100976.00;;;27.90
71564;BMP180;59391;52.504;13.438;2022-08-14T05:59:34;100965.00;;;27.90
71564;BMP180;59391;52.504;13.438;2022-08-14T06:02:00;100961.00;;;27.90
71564;BMP180;59391;52.504;13.438;2022-08-14T06:19:58;101004.00;;;28.10
71564;BMP180;59391;52.504;13.438;2022-08-14T06:22:25;100998.00;;;28.10
71564;BMP180;59391;52.504;13.438;2022-08-14T06:24:50;100999.00;;;28.20
71564;BMP180;59391;52.504;13.438;2022-08-14T06:27:16;100983.00;;;28.20
71564;BMP180;59391;52.504;13.438;2022-08-14T06:29:42;100980.00;;;28.20
71564;BMP180;59391;52.504;13.438;2022-08-14T06:32:07;100976.00;;;28.30
71564;BMP180;59391;52.504;13.438;2022-08-14T06:34:33;100979.00;;;28.30
71564;BMP180;59391;52.504;13.438;2022-08-14T06:37:03;100991.00;;;28.30
71564;BMP180;59391;52.504;13.438;2022-08-14T06:39:29;100983.00;;;28.40
71564;BMP180;59391;52.504;13.438;2022-08-14T06:41:54;100983.00;;;28.40
71564;BMP180;59391;52.504;13.438;2022-08-14T06:44:20;100994.00;;;28.40
71564;BMP180;59391;52.504;13.438;2022-08-14T06:46:45;100989.00;;;28.50
71564;BMP180;59391;52.504;13.438;2022-08-14T06:49:11;100987.00;;;28.50
71564;BMP180;59391;52.504;13.438;2022-08-14T06:51:37;101000.00;;;28.50
71564;BMP180;59391;52.504;13.438;2022-08-14T06:54:02;100995.00;;;28.60
71564;BMP180;59391;52.504;13.438;2022-08-14T06:56:28;100997.00;;;28.60
71564;BMP180;59391;52.504;13.438;2022-08-14T06:58:54;100984.00;;;28.70
71564;BMP180;59391;52.504;13.438;2022-08-14T07:01:19;100982.00;;;28.70
71564;BMP180;59391;52.504;13.438;2022-08-14T07:04:03;100984.00;;;28.80
71564;BMP180;59391;52.504;13.438;2022-08-14T07:06:47;100982.00;;;28.90
71564;BMP180;59391;52.504;13.438;2022-08-14T07:09:14;100981.00;;;29.00
71564;BMP180;59391;52.504;13.438;2022-08-14T07:11:39;100982.00;;;29.00
71564;BMP180;59391;52.504;13.438;2022-08-14T07:14:06;100977.00;;;29.10
71564;BMP180;59391;52.504;13.438;2022-08-14T07:16:31;100974.00;;;29.20
71564;BMP180;59391;52.504;13.438;2022-08-14T07:18:57;100978.00;;;29.30
71564;BMP180;59391;52.504;13.438;2022-08-14T07:21:22;100973.00;;;29.30
71564;BMP180;59391;52.504;13.438;2022-08-14T07:23:48;100956.00;;;29.40
71564;BMP180;59391;52.504;13.438;2022-08-14T07:26:14;100971.00;;;29.40
71564;BMP180;59391;52.504;13.438;2022-08-14T07:28:40;100968.00;;;29.50
71564;BMP180;59391;52.504;13.438;2022-08-14T07:31:09;100963.00;;;29.50
71564;BMP180;59391;52.504;13.438;2022-08-14T07:33:43;100965.00;;;29.60
71564;BMP180;59391;52.504;13.438;2022-08-14T07:36:12;100966.00;;;29.60
71564;BMP180;59391;52.504;13.438;2022-08-14T07:38:39;100962.00;;;29.70
71564;BMP180;59391;52.504;13.438;2022-08-14T07:41:10;100966.00;;;29.80
71564;BMP180;59391;52.504;13.438;2022-08-14T07:43:38;100968.00;;;29.90
71564;BMP180;59391;52.504;13.438;2022-08-14T07:46:05;100949.00;;;30.00
71564;BMP180;59391;52.504;13.438;2022-08-14T07:48:31;100958.00;;;30.10
71564;BMP180;59391;52.504;13.438;2022-08-14T07:50:57;100940.00;;;30.20
71564;BMP180;59391;52.504;13.438;2022-08-14T07:53:23;100950.00;;;30.20
71564;BMP180;59391;52.504;13.438;2022-08-14T07:55:48;100960.00;;;30.30
71564;BMP180;59391;52.504;13.438;2022-08-14T07:58:15;100955.00;;;30.40
71564;BMP180;59391;52.504;13.438;2022-08-14T08:00:42;100945.00;;;30.50
71564;BMP180;59391;52.504;13.438;2022-08-14T08:03:09;100929.00;;;30.60
71564;BMP180;59391;52.504;13.438;2022-08-14T08:05:38;100926.00;;;30.70
71564;BMP180;59391;52.504;13.438;2022-08-14T08:08:06;100943.00;;;30.80
71564;BMP180;59391;52.504;13.438;2022-08-14T08:10:34;100941.00;;;30.90
71564;BMP180;59391;52.504;13.438;2022-08-14T08:13:18;100948.00;;;31.00
71564;BMP180;59391;52.504;13.438;2022-08-14T08:15:50;100953.00;;;31.10
71564;BMP180;59391;52.504;13.438;2022-08-14T08:18:19;100948.00;;;31.30
71564;BMP180;59391;52.504;13.438;2022-08-14T08:20:53;100939.00;;;31.30
71564;BMP180;59391;52.504;13.438;2022-08-14T08:23:22;100936.00;;;31.50
71564;BMP180;59391;52.504;13.438;2022-08-14T08:25:50;100936.00;;;31.60
71564;BMP180;59391;52.504;13.438;2022-08-14T08:28:22;100940.00;;;31.70
71564;BMP180;59391;52.504;13.438;2022-08-14T08:30:54;100918.00;;;31.90
71564;BMP180;59391;52.504;13.438;2022-08-14T08:33:23;100928.00;;;32.00
71564;BMP180;59391;52.504;13.438;2022-08-14T08:35:50;100940.00;;;32.40
71564;BMP180;59391;52.504;13.438;2022-08-14T08:38:21;100935.00;;;33.20
71564;BMP180;59391;52.504;13.438;2022-08-14T08:40:49;100912.00;;;34.10
71564;BMP180;59391;52.504;13.438;2022-08-14T08:46:09;100912.00;;;35.80
71564;BMP180;59391;52.504;13.438;2022-08-14T08:51:33;100920.00;;;36.80
71564;BMP180;59391;52.504;13.438;2022-08-14T08:54:06;100911.00;;;37.20
71564;BMP180;59391;52.504;13.438;2022-08-14T08:56:40;100919.00;;;37.50
71564;BMP180;59391;52.504;13.438;2022-08-14T08:59:26;100912.00;;;37.60
71564;BMP180;59391;52.504;13.438;2022-08-14T09:01:56;100916.00;;;37.80
71564;BMP180;59391;52.504;13.438;2022-08-14T09:04:25;100916.00;;;38.10
71564;BMP180;59391;52.504;13.438;2022-08-14T09:06:56;100911.00;;;38.30
71564;BMP180;59391;52.504;13.438;2022-08-14T09:09:30;100901.00;;;38.50
71564;BMP180;59391;52.504;13.438;2022-08-14T09:12:00;100907.00;;;38.60
71564;BMP180;59391;52.504;13.438;2022-08-14T09:14:28;100895.00;;;38.90
71564;BMP180;59391;52.504;13.438;2022-08-14T09:16:56;100904.00;;;39.20
71564;BMP180;59391;52.504;13.438;2022-08-14T09:19:22;100904.00;;;39.60
71564;BMP180;59391;52.504;13.438;2022-08-14T09:21:48;100894.00;;;39.90
71564;BMP180;59391;52.504;13.438;2022-08-14T09:24:14;100900.00;;;40.30
71564;BMP180;59391;52.504;13.438;2022-08-14T09:26:43;100891.00;;;40.80
71564;BMP180;59391;52.504;13.438;2022-08-14T09:29:10;100888.00;;;41.10
71564;BMP180;59391;52.504;13.438;2022-08-14T09:31:42;100893.00;;;41.30
71564;BMP180;59391;52.504;13.438;2022-08-14T09:40:44;100880.00;;;41.80
71564;BMP180;59391;52.504;13.438;2022-08-14T09:43:32;100881.00;;;41.70
71564;BMP180;59391;52.504;13.438;2022-08-14T09:45:58;100894.00;;;41.50
71564;BMP180;59391;52.504;13.438;2022-08-14T09:48:25;100884.00;;;41.40
71564;BMP180;59391;52.504;13.438;2022-08-14T09:50:54;100884.00;;;41.50
71564;BMP180;59391;52.504;13.438;2022-08-14T09:53:47;100877.00;;;41.60
71564;BMP180;59391;52.504;13.438;2022-08-14T09:56:23;100869.00;;;41.20
71564;BMP180;59391;52.504;13.438;2022-08-14T09:58:50;100871.00;;;41.00
71564;BMP180;59391;52.504;13.438;2022-08-14T10:01:19;100859.00;;;41.20
71564;BMP180;59391;52.504;13.438;2022-08-14T10:03:54;100854.00;;;41.70
71564;BMP180;59391;52.504;13.438;2022-08-14T10:06:25;100852.00;;;42.00
71564;BMP180;59391;52.504;13.438;2022-08-14T10:08:58;100863.00;;;42.20
71564;BMP180;59391;52.504;13.438;2022-08-14T10:11:31;100852.00;;;42.30
71564;BMP180;59391;52.504;13.438;2022-08-14T10:14:13;100860.00;;;42.50
71564;BMP180;59391;52.504;13.438;2022-08-14T10:16:47;100850.00;;;42.60
71564;BMP180;59391;52.504;13.438;2022-08-14T10:19:17;100857.00;;;42.70
71564;BMP180;59391;52.504;13.438;2022-08-14T10:22:05;100853.00;;;42.90
71564;BMP180;59391;52.504;13.438;2022-08-14T10:24:39;100852.00;;;43.10
71564;BMP180;59391;52.504;13.438;2022-08-14T10:27:22;100846.00;;;43.30
71564;BMP180;59391;52.504;13.438;2022-08-14T10:29:54;100839.00;;;43.40
71564;BMP180;59391;52.504;13.438;2022-08-14T10:32:22;100844.00;;;43.40
71564;BMP180;59391;52.504;13.438;2022-08-14T10:34:51;100825.00;;;43.50
71564;BMP180;59391;52.504;13.438;2022-08-14T10:37:38;100836.00;;;43.50
71564;BMP180;59391;52.504;13.438;2022-08-14T10:40:05;100813.00;;;43.60
71564;BMP180;59391;52.504;13.438;2022-08-14T10:42:40;100820.00;;;43.60
71564;BMP180;59391;52.504;13.438;2022-08-14T10:45:29;100798.00;;;43.40
71564;BMP180;59391;52.504;13.438;2022-08-14T10:47:54;100810.00;;;43.40
71564;BMP180;59391;52.504;13.438;2022-08-14T10:50:35;100806.00;;;43.60
71564;BMP180;59391;52.504;13.438;2022-08-14T10:53:03;100810.00;;;43.80
71564;BMP180;59391;52.504;13.438;2022-08-14T10:55:33;100785.00;;;43.80
71564;BMP180;59391;52.504;13.438;2022-08-14T10:58:08;100797.00;;;44.00
71564;BMP180;59391;52.504;13.438;2022-08-14T11:00:37;100787.00;;;44.00
71564;BMP180;59391;52.504;13.438;2022-08-14T11:03:07;100787.00;;;43.90
71564;BMP180;59391;52.504;13.438;2022-08-14T11:05:46;100793.00;;;43.80
71564;BMP180;59391;52.504;13.438;2022-08-14T11:08:17;100789.00;;;43.50
71564;BMP180;59391;52.504;13.438;2022-08-14T11:10:57;100781.00;;;43.20
71564;BMP180;59391;52.504;13.438;2022-08-14T11:13:29;100785.00;;;42.90
71564;BMP180;59391;52.504;13.438;2022-08-14T11:16:00;100783.00;;;42.70
71564;BMP180;59391;52.504;13.438;2022-08-14T11:18:32;100783.00;;;42.70
71564;BMP180;59391;52.504;13.438;2022-08-14T11:20:59;100755.00;;;43.00
71564;BMP180;59391;52.504;13.438;2022-08-14T11:23:37;100745.00;;;43.20
71564;BMP180;59391;52.504;13.438;2022-08-14T11:26:06;100769.00;;;43.20
71564;BMP180;59391;52.504;13.438;2022-08-14T11:28:37;100769.00;;;43.20
71564;BMP180;59391;52.504;13.438;2022-08-14T11:31:07;100777.00;;;43.30
71564;BMP180;59391;52.504;13.438;2022-08-14T11:33:33;100794.00;;;43.50
71564;BMP180;59391;52.504;13.438;2022-08-14T11:36:05;100783.00;;;43.70
71564;BMP180;59391;52.504;13.438;2022-08-14T11:38:43;100774.00;;;44.00
71564;BMP180;59391;52.504;13.438;2022-08-14T11:41:14;100774.00;;;44.30
71564;BMP180;59391;52.504;13.438;2022-08-14T11:43:43;100765.00;;;44.70
71564;BMP180;59391;52.504;13.438;2022-08-14T11:46:10;100780.00;;;45.00
71564;BMP180;59391;52.504;13.438;2022-08-14T11:48:52;100771.00;;;45.30
71564;BMP180;59391;52.504;13.438;2022-08-14T11:51:21;100772.00;;;45.60
71564;BMP180;59391;52.504;13.438;2022-08-14T11:54:03;100769.00;;;46.00
71564;BMP180;59391;52.504;13.438;2022-08-14T11:56:39;100771.00;;;46.40
71564;BMP180;59391;52.504;13.438;2022-08-14T11:59:13;100762.00;;;46.60
71564;BMP180;59391;52.504;13.438;2022-08-14T12:01:39;100757.00;;;46.90
71564;BMP180;59391;52.504;13.438;2022-08-14T12:04:21;100763.00;;;47.00
71564;BMP180;59391;52.504;13.438;2022-08-14T12:06:59;100763.00;;;46.90
71564;BMP180;59391;52.504;13.438;2022-08-14T12:09:55;100713.00;;;46.90
71564;BMP180;59391;52.504;13.438;2022-08-14T12:12:26;100756.00;;;46.80
71564;BMP180;59391;52.504;13.438;2022-08-14T12:15:06;100750.00;;;46.80
71564;BMP180;59391;52.504;13.438;2022-08-14T12:17:47;100737.00;;;46.60
71564;BMP180;59391;52.504;13.438;2022-08-14T12:20:37;100730.00;;;45.90
71564;BMP180;59391;52.504;13.438;2022-08-14T12:23:29;100749.00;;;45.30
71564;BMP180;59391;52.504;13.438;2022-08-14T12:26:07;100688.00;;;44.80
71564;BMP180;59391;52.504;13.438;2022-08-14T12:28:43;100680.00;;;44.20
71564;BMP180;59391;52.504;13.438;2022-08-14T12:31:22;100674.00;;;43.80
71564;BMP180;59391;52.504;13.438;2022-08-14T12:33:57;100704.00;;;43.50
71564;BMP180;59391;52.504;13.438;2022-08-14T12:36:25;100708.00;;;43.40
71564;BMP180;59391;52.504;13.438;2022-08-14T12:38:59;100701.00;;;43.30
71564;BMP180;59391;52.504;13.438;2022-08-14T12:41:28;100698.00;;;43.10
71564;BMP180;59391;52.504;13.438;2022-08-14T12:44:01;100690.00;;;43.00
71564;BMP180;59391;52.504;13.438;2022-08-14T12:46:39;100701.00;;;42.80
71564;BMP180;59391;52.504;13.438;2022-08-14T12:49:16;100686.00;;;42.50
71564;BMP180;59391;52.504;13.438;2022-08-14T12:51:56;100687.00;;;42.30
71564;BMP180;59391;52.504;13.438;2022-08-14T12:54:21;100684.00;;;42.20
71564;BMP180;59391;52.504;13.438;2022-08-14T12:56:47;100683.00;;;42.20
71564;BMP180;59391;52.504;13.438;2022-08-14T12:59:14;100681.00;;;42.00
71564;BMP180;59391;52.504;13.438;2022-08-14T13:01:44;100682.00;;;41.80
71564;BMP180;59391;52.504;13.438;2022-08-14T13:04:14;100664.00;;;41.60
71564;BMP180;59391;52.504;13.438;2022-08-14T13:06:43;100671.00;;;41.40
71564;BMP180;59391;52.504;13.438;2022-08-14T13:09:13;100666.00;;;41.30
71564;BMP180;59391;52.504;13.438;2022-08-14T13:11:44;100658.00;;;41.20
71564;BMP180;59391;52.504;13.438;2022-08-14T13:14:13;100656.00;;;41.10
71564;BMP180;59391;52.504;13.438;2022-08-14T13:16:41;100658.00;;;40.90
71564;BMP180;59391;52.504;13.438;2022-08-14T13:19:13;100649.00;;;40.80
71564;BMP180;59391;52.504;13.438;2022-08-14T13:21:45;100644.00;;;40.90
71564;BMP180;59391;52.504;13.438;2022-08-14T13:24:13;100633.00;;;41.10
71564;BMP180;59391;52.504;13.438;2022-08-14T13:26:50;100623.00;;;41.10
71564;BMP180;59391;52.504;13.438;2022-08-14T13:29:23;100631.00;;;41.00
71564;BMP180;59391;52.504;13.438;2022-08-14T13:31:52;100619.00;;;41.10
71564;BMP180;59391;52.504;13.438;2022-08-14T13:34:25;100603.00;;;41.30
71564;BMP180;59391;52.504;13.438;2022-08-14T13:36:51;100601.00;;;41.30
71564;BMP180;59391;52.504;13.438;2022-08-14T13:39:20;100586.00;;;41.10
71564;BMP180;59391;52.504;13.438;2022-08-14T13:41:46;100589.00;;;40.80
71564;BMP180;59391;52.504;13.438;2022-08-14T13:44:13;100601.00;;;40.60
71564;BMP180;59391;52.504;13.438;2022-08-14T13:46:40;100587.00;;;40.40
71564;BMP180;59391;52.504;13.438;2022-08-14T13:49:08;100589.00;;;40.30
71564;BMP180;59391;52.504;13.438;2022-08-14T13:51:46;100595.00;;;40.10
71564;BMP180;59391;52.504;13.438;2022-08-14T13:54:18;100593.00;;;40.00
71564;BMP180;59391;52.504;13.438;2022-08-14T13:56:47;100578.00;;;39.80
71564;BMP180;59391;52.504;13.438;2022-08-14T13:59:13;100577.00;;;39.70
71564;BMP180;59391;52.504;13.438;2022-08-14T14:01:40;100576.00;;;39.50
71564;BMP180;59391;52.504;13.438;2022-08-14T14:04:15;100572.00;;;39.40
71564;BMP180;59391;52.504;13.438;2022-08-14T14:06:48;100568.00;;;39.20
71564;BMP180;59391;52.504;13.438;2022-08-14T14:09:23;100563.00;;;39.10
71564;BMP180;59391;52.504;13.438;2022-08-14T14:11:50;100552.00;;;39.00
71564;BMP180;59391;52.504;13.438;2022-08-14T14:14:16;100546.00;;;39.00
71564;BMP180;59391;52.504;13.438;2022-08-14T14:16:45;100557.00;;;38.80
71564;BMP180;59391;52.504;13.438;2022-08-14T14:19:16;100539.00;;;38.70
71564;BMP180;59391;52.504;13.438;2022-08-14T14:21:43;100528.00;;;38.70
71564;BMP180;59391;52.504;13.438;2022-08-14T14:24:10;100528.00;;;38.60
71564;BMP180;59391;52.504;13.438;2022-08-14T14:26:36;100526.00;;;38.50
71564;BMP180;59391;52.504;13.438;2022-08-14T14:29:05;100516.00;;;38.30
71564;BMP180;59391;52.504;13.438;2022-08-14T14:31:31;100519.00;;;38.20